sensor_id;sensor_type;location;lat;lon;timestamp;P1;durP1;ratioP1;P2;durP2;ratioP2
71639;SDS011;60912;48.968;10.124;2024-02-21T00:01:27;6.93;;;2.47;;
71639;SDS011;60912;48.968;10.124;2024-02-21T00:03:52;13.73;;;3.23;;
71639;SDS011;60912;48.968;10.124;2024-02-21T00:06:17;13.13;;;3.03;;
71639;SDS011;60912;48.968;10.124;2024-02-21T00:08:42;9.23;;;2.83;;
71639;SDS011;60912;48.968;10.124;2024-02-21T00:11:08;8.77;;;2.73;;
71639;SDS011;60912;48.968;10.124;2024-02-21T00:13:33;11.13;;;3.10;;
71639;SDS011;60912;48.968;10.124;2024-02-21T00:16:00;7.93;;;2.70;;
71639;SDS011;60912;48.968;10.124;2024-02-21T00:18:25;7.33;;;3.23;;
71639;SDS011;60912;48.968;10.124;2024-02-21T00:20:51;11.70;;;2.90;;
71639;SDS011;60912;48.968;10.124;2024-02-21T00:23:16;11.75;;;3.10;;
71639;SDS011;60912;48.968;10.124;2024-02-21T00:25:41;11.17;;;3.17;;
71639;SDS011;60912;48.968;10.124;2024-02-21T00:28:07;12.63;;;3.40;;
71639;SDS011;60912;48.968;10.124;2024-02-21T00:30:32;8.50;;;3.20;;
71639;SDS011;60912;48.968;10.124;2024-02-21T00:32:57;9.37;;;2.73;;
71639;SDS011;60912;48.968;10.124;2024-02-21T00:35:23;9.73;;;3.07;;
71639;SDS011;60912;48.968;10.124;2024-02-21T00:37:50;8.03;;;3.17;;
71639;SDS011;60912;48.968;10.124;2024-02-21T00:40:16;14.90;;;3.80;;
71639;SDS011;60912;48.968;10.124;2024-02-21T00:42:45;14.02;;;2.90;;
71639;SDS011;60912;48.968;10.124;2024-02-21T00:45:11;11.48;;;2.90;;
71639;SDS011;60912;48.968;10.124;2024-02-21T00:47:36;11.10;;;3.07;;
71639;SDS011;60912;48.968;10.124;2024-02-21T00:50:02;9.10;;;2.93;;
71639;SDS011;60912;48.968;10.124;2024-02-21T00:52:27;8.82;;;3.03;;
71639;SDS011;60912;48.968;10.124;2024-02-21T00:54:52;10.20;;;3.20;;
71639;SDS011;60912;48.968;10.124;2024-02-21T00:57:18;9.70;;;3.33;;
71639;SDS011;60912;48.968;10.124;2024-02-21T00:59:43;10.47;;;3.17;;
71639;SDS011;60912;48.968;10.124;2024-02-21T01:02:08;8.33;;;2.90;;
71639;SDS011;60912;48.968;10.124;2024-02-21T01:04:34;13.90;;;3.37;;
71639;SDS011;60912;48.968;10.124;2024-02-21T01:06:59;12.57;;;3.40;;
71639;SDS011;60912;48.968;10.124;2024-02-21T01:09:25;6.97;;;2.70;;
71639;SDS011;60912;48.968;10.124;2024-02-21T01:11:50;15.23;;;3.20;;
71639;SDS011;60912;48.968;10.124;2024-02-21T01:14:16;13.30;;;3.23;;
71639;SDS011;60912;48.968;10.124;2024-02-21T01:16:41;11.73;;;2.90;;
71639;SDS011;60912;48.968;10.124;2024-02-21T01:19:06;10.37;;;3.50;;
71639;SDS011;60912;48.968;10.124;2024-02-21T01:21:32;11.10;;;3.10;;
71639;SDS011;60912;48.968;10.124;2024-02-21T01:23:57;12.23;;;3.10;;
71639;SDS011;60912;48.968;10.124;2024-02-21T01:26:22;8.43;;;2.70;;
71639;SDS011;60912;48.968;10.124;2024-02-21T01:28:48;10.80;;;2.87;;
71639;SDS011;60912;48.968;10.124;2024-02-21T01:31:13;8.75;;;2.83;;
71639;SDS011;60912;48.968;10.124;2024-02-21T01:33:40;12.53;;;3.17;;
71639;SDS011;60912;48.968;10.124;2024-02-21T01:36:06;8.57;;;2.70;;
71639;SDS011;60912;48.968;10.124;2024-02-21T01:38:32;10.85;;;2.95;;
71639;SDS011;60912;48.968;10.124;2024-02-21T01:40:57;9.53;;;2.93;;
71639;SDS011;60912;48.968;10.124;2024-02-21T01:43:22;10.43;;;2.57;;
71639;SDS011;60912;48.968;10.124;2024-02-21T01:46:06;11.32;;;2.90;;
71639;SDS011;60912;48.968;10.124;2024-02-21T01:48:32;6.97;;;2.53;;
71639;SDS011;60912;48.968;10.124;2024-02-21T01:50:59;9.63;;;2.85;;
71639;SDS011;60912;48.968;10.124;2024-02-21T01:53:27;11.10;;;2.67;;
71639;SDS011;60912;48.968;10.124;2024-02-21T01:55:55;7.20;;;3.00;;
71639;SDS011;60912;48.968;10.124;2024-02-21T01:58:20;12.90;;;3.27;;
71639;SDS011;60912;48.968;10.124;2024-02-21T02:00:47;10.00;;;2.90;;
71639;SDS011;60912;48.968;10.124;2024-02-21T02:03:13;7.93;;;2.80;;
71639;SDS011;60912;48.968;10.124;2024-02-21T02:05:48;12.25;;;2.97;;
71639;SDS011;60912;48.968;10.124;2024-02-21T02:08:15;10.52;;;2.70;;
71639;SDS011;60912;48.968;10.124;2024-02-21T02:10:41;8.55;;;2.60;;
71639;SDS011;60912;48.968;10.124;2024-02-21T02:13:07;8.13;;;2.83;;
71639;SDS011;60912;48.968;10.124;2024-02-21T02:18:11;11.70;;;2.60;;
71639;SDS011;60912;48.968;10.124;2024-02-21T02:20:38;10.60;;;2.75;;
71639;SDS011;60912;48.968;10.124;2024-02-21T02:23:10;8.93;;;2.83;;
71639;SDS011;60912;48.968;10.124;2024-02-21T02:25:37;9.85;;;2.10;;
71639;SDS011;60912;48.968;10.124;2024-02-21T02:28:04;8.77;;;2.42;;
71639;SDS011;60912;48.968;10.124;2024-02-21T02:30:36;11.50;;;2.92;;
71639;SDS011;60912;48.968;10.124;2024-02-21T02:33:05;9.15;;;3.08;;
71639;SDS011;60912;48.968;10.124;2024-02-21T02:35:30;7.43;;;2.50;;
71639;SDS011;60912;48.968;10.124;2024-02-21T02:37:56;7.43;;;2.53;;
71639;SDS011;60912;48.968;10.124;2024-02-21T02:40:22;7.33;;;2.50;;
71639;SDS011;60912;48.968;10.124;2024-02-21T02:42:48;9.25;;;2.47;;
71639;SDS011;60912;48.968;10.124;2024-02-21T02:45:14;8.63;;;2.70;;
71639;SDS011;60912;48.968;10.124;2024-02-21T02:47:40;9.40;;;2.65;;
71639;SDS011;60912;48.968;10.124;2024-02-21T02:50:06;9.83;;;2.53;;
71639;SDS011;60912;48.968;10.124;2024-02-21T02:52:32;13.68;;;2.90;;
71639;SDS011;60912;48.968;10.124;2024-02-21T02:54:57;8.60;;;2.40;;
71639;SDS011;60912;48.968;10.124;2024-02-21T02:57:23;14.13;;;3.00;;
71639;SDS011;60912;48.968;10.124;2024-02-21T02:59:48;7.17;;;2.73;;
71639;SDS011;60912;48.968;10.124;2024-02-21T03:02:14;10.00;;;2.63;;
71639;SDS011;60912;48.968;10.124;2024-02-21T03:04:39;10.23;;;2.47;;
71639;SDS011;60912;48.968;10.124;2024-02-21T03:07:05;10.10;;;2.90;;
71639;SDS011;60912;48.968;10.124;2024-02-21T03:09:31;9.73;;;2.57;;
71639;SDS011;60912;48.968;10.124;2024-02-21T03:11:56;8.10;;;2.80;;
71639;SDS011;60912;48.968;10.124;2024-02-21T03:14:27;12.33;;;2.97;;
71639;SDS011;60912;48.968;10.124;2024-02-21T03:16:56;10.02;;;2.50;;
71639;SDS011;60912;48.968;10.124;2024-02-21T03:19:21;9.88;;;2.90;;
71639;SDS011;60912;48.968;10.124;2024-02-21T03:21:47;7.03;;;2.30;;
71639;SDS011;60912;48.968;10.124;2024-02-21T03:24:14;6.97;;;2.47;;
71639;SDS011;60912;48.968;10.124;2024-02-21T03:26:40;10.48;;;2.55;;
71639;SDS011;60912;48.968;10.124;2024-02-21T03:29:05;7.57;;;2.23;;
71639;SDS011;60912;48.968;10.124;2024-02-21T03:31:31;11.73;;;2.67;;
71639;SDS011;60912;48.968;10.124;2024-02-21T03:33:56;12.43;;;3.07;;
71639;SDS011;60912;48.968;10.124;2024-02-21T03:36:21;10.55;;;2.80;;
71639;SDS011;60912;48.968;10.124;2024-02-21T03:38:47;7.70;;;2.50;;
71639;SDS011;60912;48.968;10.124;2024-02-21T03:41:12;6.17;;;2.20;;
71639;SDS011;60912;48.968;10.124;2024-02-21T03:43:38;11.77;;;2.20;;
71639;SDS011;60912;48.968;10.124;2024-02-21T03:46:04;8.77;;;2.37;;
71639;SDS011;60912;48.968;10.124;2024-02-21T03:48:29;7.87;;;2.40;;
71639;SDS011;60912;48.968;10.124;2024-02-21T03:50:54;6.33;;;2.20;;
71639;SDS011;60912;48.968;10.124;2024-02-21T03:53:20;7.83;;;2.30;;
71639;SDS011;60912;48.968;10.124;2024-02-21T03:55:45;12.77;;;2.67;;
71639;SDS011;60912;48.968;10.124;2024-02-21T03:58:10;9.77;;;2.40;;
71639;SDS011;60912;48.968;10.124;2024-02-21T04:00:36;11.97;;;2.63;;
71639;SDS011;60912;48.968;10.124;2024-02-21T04:03:01;8.80;;;2.83;;
71639;SDS011;60912;48.968;10.124;2024-02-21T04:05:27;6.55;;;2.28;;
71639;SDS011;60912;48.968;10.124;2024-02-21T04:07:53;12.17;;;3.13;;
71639;SDS011;60912;48.968;10.124;2024-02-21T04:10:18;6.63;;;2.25;;
71639;SDS011;60912;48.968;10.124;2024-02-21T04:12:44;7.13;;;2.10;;
71639;SDS011;60912;48.968;10.124;2024-02-21T04:15:09;12.10;;;2.63;;
71639;SDS011;60912;48.968;10.124;2024-02-21T04:17:34;9.20;;;2.30;;
71639;SDS011;60912;48.968;10.124;2024-02-21T04:20:02;10.45;;;2.30;;
71639;SDS011;60912;48.968;10.124;2024-02-21T04:22:30;9.10;;;2.30;;
71639;SDS011;60912;48.968;10.124;2024-02-21T04:25:02;9.10;;;2.30;;
71639;SDS011;60912;48.968;10.124;2024-02-21T04:27:27;10.23;;;2.40;;
71639;SDS011;60912;48.968;10.124;2024-02-21T04:29:53;9.15;;;2.20;;
71639;SDS011;60912;48.968;10.124;2024-02-21T04:32:18;8.97;;;2.47;;
71639;SDS011;60912;48.968;10.124;2024-02-21T04:34:43;9.40;;;2.33;;
71639;SDS011;60912;48.968;10.124;2024-02-21T04:37:09;12.23;;;3.07;;
71639;SDS011;60912;48.968;10.124;2024-02-21T04:39:34;7.43;;;2.20;;
71639;SDS011;60912;48.968;10.124;2024-02-21T04:41:59;9.10;;;2.37;;
71639;SDS011;60912;48.968;10.124;2024-02-21T04:44:25;5.88;;;2.22;;
71639;SDS011;60912;48.968;10.124;2024-02-21T04:46:50;8.70;;;2.60;;
71639;SDS011;60912;48.968;10.124;2024-02-21T04:49:16;7.57;;;2.30;;
71639;SDS011;60912;48.968;10.124;2024-02-21T04:51:41;9.70;;;2.40;;
71639;SDS011;60912;48.968;10.124;2024-02-21T04:54:06;9.05;;;2.35;;
71639;SDS011;60912;48.968;10.124;2024-02-21T04:56:32;11.20;;;2.70;;
71639;SDS011;60912;48.968;10.124;2024-02-21T04:58:57;7.37;;;2.40;;
71639;SDS011;60912;48.968;10.124;2024-02-21T05:01:23;7.33;;;2.40;;
71639;SDS011;60912;48.968;10.124;2024-02-21T05:03:48;6.00;;;2.13;;
71639;SDS011;60912;48.968;10.124;2024-02-21T05:06:14;10.03;;;2.23;;
71639;SDS011;60912;48.968;10.124;2024-02-21T05:08:40;13.53;;;2.80;;
71639;SDS011;60912;48.968;10.124;2024-02-21T05:11:05;10.18;;;2.38;;
71639;SDS011;60912;48.968;10.124;2024-02-21T05:13:31;10.20;;;2.50;;
71639;SDS011;60912;48.968;10.124;2024-02-21T05:15:56;6.20;;;2.57;;
71639;SDS011;60912;48.968;10.124;2024-02-21T05:18:21;10.47;;;2.50;;
71639;SDS011;60912;48.968;10.124;2024-02-21T05:20:47;8.03;;;2.43;;
71639;SDS011;60912;48.968;10.124;2024-02-21T05:23:12;9.60;;;2.50;;
71639;SDS011;60912;48.968;10.124;2024-02-21T05:25:37;9.10;;;2.67;;
71639;SDS011;60912;48.968;10.124;2024-02-21T05:28:03;7.40;;;2.60;;
71639;SDS011;60912;48.968;10.124;2024-02-21T05:30:31;11.10;;;2.85;;
71639;SDS011;60912;48.968;10.124;2024-02-21T05:32:56;8.60;;;3.03;;
71639;SDS011;60912;48.968;10.124;2024-02-21T05:35:25;9.67;;;2.97;;
71639;SDS011;60912;48.968;10.124;2024-02-21T05:37:53;13.48;;;3.20;;
71639;SDS011;60912;48.968;10.124;2024-02-21T05:40:19;9.03;;;3.10;;
71639;SDS011;60912;48.968;10.124;2024-02-21T05:42:44;8.10;;;3.00;;
71639;SDS011;60912;48.968;10.124;2024-02-21T05:45:09;10.13;;;3.40;;
71639;SDS011;60912;48.968;10.124;2024-02-21T05:47:35;14.13;;;4.10;;
71639;SDS011;60912;48.968;10.124;2024-02-21T05:50:00;10.17;;;2.90;;
71639;SDS011;60912;48.968;10.124;2024-02-21T05:52:26;13.47;;;3.10;;
71639;SDS011;60912;48.968;10.124;2024-02-21T05:54:51;10.47;;;3.47;;
71639;SDS011;60912;48.968;10.124;2024-02-21T05:57:19;9.00;;;3.20;;
71639;SDS011;60912;48.968;10.124;2024-02-21T05:59:45;8.68;;;3.63;;
71639;SDS011;60912;48.968;10.124;2024-02-21T06:02:10;14.00;;;3.30;;
71639;SDS011;60912;48.968;10.124;2024-02-21T06:04:36;9.13;;;3.55;;
71639;SDS011;60912;48.968;10.124;2024-02-21T06:07:01;10.03;;;3.60;;
71639;SDS011;60912;48.968;10.124;2024-02-21T06:09:27;10.77;;;3.87;;
71639;SDS011;60912;48.968;10.124;2024-02-21T06:11:53;12.83;;;4.13;;
71639;SDS011;60912;48.968;10.124;2024-02-21T06:14:19;11.37;;;3.60;;
71639;SDS011;60912;48.968;10.124;2024-02-21T06:16:44;8.32;;;3.17;;
71639;SDS011;60912;48.968;10.124;2024-02-21T06:19:10;10.73;;;3.72;;
71639;SDS011;60912;48.968;10.124;2024-02-21T06:21:36;15.57;;;5.50;;
71639;SDS011;60912;48.968;10.124;2024-02-21T06:24:02;9.07;;;3.95;;
71639;SDS011;60912;48.968;10.124;2024-02-21T06:26:28;12.77;;;3.78;;
71639;SDS011;60912;48.968;10.124;2024-02-21T06:28:53;8.40;;;3.50;;
71639;SDS011;60912;48.968;10.124;2024-02-21T06:31:19;12.10;;;3.90;;
71639;SDS011;60912;48.968;10.124;2024-02-21T06:33:44;8.97;;;3.40;;
71639;SDS011;60912;48.968;10.124;2024-02-21T06:36:09;15.00;;;4.00;;
71639;SDS011;60912;48.968;10.124;2024-02-21T06:38:35;10.87;;;3.43;;
71639;SDS011;60912;48.968;10.124;2024-02-21T06:41:00;12.30;;;3.50;;
71639;SDS011;60912;48.968;10.124;2024-02-21T06:43:27;8.38;;;3.70;;
71639;SDS011;60912;48.968;10.124;2024-02-21T06:45:53;9.77;;;4.10;;
71639;SDS011;60912;48.968;10.124;2024-02-21T06:48:19;10.95;;;4.55;;
71639;SDS011;60912;48.968;10.124;2024-02-21T06:50:44;10.30;;;3.87;;
71639;SDS011;60912;48.968;10.124;2024-02-21T06:53:10;14.13;;;5.07;;
71639;SDS011;60912;48.968;10.124;2024-02-21T06:55:35;9.23;;;3.40;;
71639;SDS011;60912;48.968;10.124;2024-02-21T06:58:00;8.20;;;3.43;;
71639;SDS011;60912;48.968;10.124;2024-02-21T07:00:27;7.90;;;2.92;;
71639;SDS011;60912;48.968;10.124;2024-02-21T07:02:53;8.43;;;2.93;;
71639;SDS011;60912;48.968;10.124;2024-02-21T07:05:19;7.72;;;3.15;;
71639;SDS011;60912;48.968;10.124;2024-02-21T07:07:44;8.53;;;2.87;;
71639;SDS011;60912;48.968;10.124;2024-02-21T07:10:10;6.87;;;2.60;;
71639;SDS011;60912;48.968;10.124;2024-02-21T07:12:36;8.20;;;2.40;;
71639;SDS011;60912;48.968;10.124;2024-02-21T07:15:04;12.03;;;2.40;;
71639;SDS011;60912;48.968;10.124;2024-02-21T07:17:30;10.00;;;2.63;;
71639;SDS011;60912;48.968;10.124;2024-02-21T07:19:55;9.13;;;2.80;;
71639;SDS011;60912;48.968;10.124;2024-02-21T07:22:24;10.43;;;2.80;;
71639;SDS011;60912;48.968;10.124;2024-02-21T07:24:49;9.00;;;3.05;;
71639;SDS011;60912;48.968;10.124;2024-02-21T07:27:15;9.03;;;2.77;;
71639;SDS011;60912;48.968;10.124;2024-02-21T07:29:40;7.38;;;2.78;;
71639;SDS011;60912;48.968;10.124;2024-02-21T07:32:06;7.43;;;3.10;;
71639;SDS011;60912;48.968;10.124;2024-02-21T07:34:31;9.33;;;2.77;;
71639;SDS011;60912;48.968;10.124;2024-02-21T07:36:57;7.30;;;3.10;;
71639;SDS011;60912;48.968;10.124;2024-02-21T07:39:22;8.00;;;2.85;;
71639;SDS011;60912;48.968;10.124;2024-02-21T07:41:48;7.27;;;2.83;;
71639;SDS011;60912;48.968;10.124;2024-02-21T07:44:14;9.00;;;3.17;;
71639;SDS011;60912;48.968;10.124;2024-02-21T07:46:40;11.20;;;3.83;;
71639;SDS011;60912;48.968;10.124;2024-02-21T07:49:05;10.10;;;4.47;;
71639;SDS011;60912;48.968;10.124;2024-02-21T07:51:31;10.73;;;3.90;;
71639;SDS011;60912;48.968;10.124;2024-02-21T07:53:56;9.47;;;3.60;;
71639;SDS011;60912;48.968;10.124;2024-02-21T07:56:21;7.20;;;3.47;;
71639;SDS011;60912;48.968;10.124;2024-02-21T07:58:47;9.83;;;4.10;;
71639;SDS011;60912;48.968;10.124;2024-02-21T08:01:17;19.58;;;4.55;;
71639;SDS011;60912;48.968;10.124;2024-02-21T08:03:44;9.63;;;4.20;;
71639;SDS011;60912;48.968;10.124;2024-02-21T08:06:11;14.32;;;3.72;;
71639;SDS011;60912;48.968;10.124;2024-02-21T08:08:37;10.10;;;3.60;;
71639;SDS011;60912;48.968;10.124;2024-02-21T08:11:03;13.18;;;3.38;;
71639;SDS011;60912;48.968;10.124;2024-02-21T08:13:28;7.57;;;3.40;;
71639;SDS011;60912;48.968;10.124;2024-02-21T08:15:54;10.80;;;3.20;;
71639;SDS011;60912;48.968;10.124;2024-02-21T08:18:19;9.83;;;2.50;;
71639;SDS011;60912;48.968;10.124;2024-02-21T08:20:45;9.80;;;2.70;;
71639;SDS011;60912;48.968;10.124;2024-02-21T08:23:10;9.97;;;2.63;;
71639;SDS011;60912;48.968;10.124;2024-02-21T08:25:35;8.50;;;2.40;;
71639;SDS011;60912;48.968;10.124;2024-02-21T08:28:01;7.07;;;2.80;;
71639;SDS011;60912;48.968;10.124;2024-02-21T08:30:26;9.37;;;2.80;;
71639;SDS011;60912;48.968;10.124;2024-02-21T08:32:51;8.63;;;2.37;;
71639;SDS011;60912;48.968;10.124;2024-02-21T08:35:18;7.93;;;2.90;;
71639;SDS011;60912;48.968;10.124;2024-02-21T08:37:44;9.98;;;3.05;;
71639;SDS011;60912;48.968;10.124;2024-02-21T08:40:13;9.03;;;3.00;;
71639;SDS011;60912;48.968;10.124;2024-02-21T08:42:42;6.88;;;2.28;;
71639;SDS011;60912;48.968;10.124;2024-02-21T08:45:08;6.90;;;2.25;;
71639;SDS011;60912;48.968;10.124;2024-02-21T08:47:34;8.50;;;2.28;;
71639;SDS011;60912;48.968;10.124;2024-02-21T08:50:01;6.40;;;2.17;;
71639;SDS011;60912;48.968;10.124;2024-02-21T08:52:27;5.45;;;1.75;;
71639;SDS011;60912;48.968;10.124;2024-02-21T08:54:52;6.07;;;1.83;;
71639;SDS011;60912;48.968;10.124;2024-02-21T08:57:18;6.10;;;1.70;;
71639;SDS011;60912;48.968;10.124;2024-02-21T08:59:44;9.55;;;2.30;;
71639;SDS011;60912;48.968;10.124;2024-02-21T09:02:09;7.40;;;1.77;;
71639;SDS011;60912;48.968;10.124;2024-02-21T09:04:35;4.73;;;1.60;;
71639;SDS011;60912;48.968;10.124;2024-02-21T09:07:00;6.23;;;2.03;;
71639;SDS011;60912;48.968;10.124;2024-02-21T09:09:25;7.40;;;1.30;;
71639;SDS011;60912;48.968;10.124;2024-02-21T09:11:53;6.07;;;1.40;;
71639;SDS011;60912;48.968;10.124;2024-02-21T09:14:18;7.15;;;1.58;;
71639;SDS011;60912;48.968;10.124;2024-02-21T09:16:44;6.33;;;1.50;;
71639;SDS011;60912;48.968;10.124;2024-02-21T09:19:09;5.27;;;1.40;;
71639;SDS011;60912;48.968;10.124;2024-02-21T09:21:36;6.85;;;1.60;;
71639;SDS011;60912;48.968;10.124;2024-02-21T09:24:02;8.20;;;1.75;;
71639;SDS011;60912;48.968;10.124;2024-02-21T09:26:28;8.63;;;1.70;;
71639;SDS011;60912;48.968;10.124;2024-02-21T09:28:53;5.57;;;1.63;;
71639;SDS011;60912;48.968;10.124;2024-02-21T09:31:18;6.20;;;1.70;;
71639;SDS011;60912;48.968;10.124;2024-02-21T09:33:44;6.83;;;1.70;;
71639;SDS011;60912;48.968;10.124;2024-02-21T09:36:10;8.47;;;1.90;;
71639;SDS011;60912;48.968;10.124;2024-02-21T09:38:35;5.80;;;1.60;;
71639;SDS011;60912;48.968;10.124;2024-02-21T09:41:08;5.30;;;1.77;;
71639;SDS011;60912;48.968;10.124;2024-02-21T09:43:43;6.35;;;1.90;;
71639;SDS011;60912;48.968;10.124;2024-02-21T09:46:17;5.30;;;1.42;;
71639;SDS011;60912;48.968;10.124;2024-02-21T09:51:40;4.90;;;1.70;;
71639;SDS011;60912;48.968;10.124;2024-02-21T09:54:07;6.63;;;1.30;;
71639;SDS011;60912;48.968;10.124;2024-02-21T09:56:33;6.53;;;1.90;;
71639;SDS011;60912;48.968;10.124;2024-02-21T09:58:58;5.67;;;1.20;;
71639;SDS011;60912;48.968;10.124;2024-02-21T10:01:25;5.20;;;1.30;;
71639;SDS011;60912;48.968;10.124;2024-02-21T10:03:51;5.75;;;1.58;;
71639;SDS011;60912;48.968;10.124;2024-02-21T10:06:16;4.70;;;1.50;;
71639;SDS011;60912;48.968;10.124;2024-02-21T10:08:41;4.20;;;1.20;;
71639;SDS011;60912;48.968;10.124;2024-02-21T10:11:07;6.53;;;1.60;;
71639;SDS011;60912;48.968;10.124;2024-02-21T10:13:35;5.95;;;1.67;;
71639;SDS011;60912;48.968;10.124;2024-02-21T10:16:04;6.03;;;1.47;;
71639;SDS011;60912;48.968;10.124;2024-02-21T10:18:33;5.18;;;1.40;;
71639;SDS011;60912;48.968;10.124;2024-02-21T10:21:03;4.63;;;1.40;;
71639;SDS011;60912;48.968;10.124;2024-02-21T10:23:29;5.65;;;1.40;;
71639;SDS011;60912;48.968;10.124;2024-02-21T10:26:04;4.57;;;1.50;;
71639;SDS011;60912;48.968;10.124;2024-02-21T10:28:30;5.68;;;1.70;;
71639;SDS011;60912;48.968;10.124;2024-02-21T10:30:55;4.17;;;1.30;;
71639;SDS011;60912;48.968;10.124;2024-02-21T10:33:20;6.28;;;1.58;;
71639;SDS011;60912;48.968;10.124;2024-02-21T10:35:47;6.77;;;1.70;;
71639;SDS011;60912;48.968;10.124;2024-02-21T10:38:12;5.60;;;1.40;;
71639;SDS011;60912;48.968;10.124;2024-02-21T10:40:38;4.87;;;1.10;;
71639;SDS011;60912;48.968;10.124;2024-02-21T10:43:03;4.27;;;1.20;;
71639;SDS011;60912;48.968;10.124;2024-02-21T10:45:34;6.03;;;1.45;;
71639;SDS011;60912;48.968;10.124;2024-02-21T10:48:16;5.95;;;1.17;;
71639;SDS011;60912;48.968;10.124;2024-02-21T10:50:57;4.85;;;1.45;;
71639;SDS011;60912;48.968;10.124;2024-02-21T10:59:04;4.97;;;1.50;;
71639;SDS011;60912;48.968;10.124;2024-02-21T11:01:30;4.10;;;1.25;;
71639;SDS011;60912;48.968;10.124;2024-02-21T11:04:06;4.75;;;1.25;;
71639;SDS011;60912;48.968;10.124;2024-02-21T11:06:32;5.17;;;1.50;;
71639;SDS011;60912;48.968;10.124;2024-02-21T11:09:04;5.03;;;1.50;;
71639;SDS011;60912;48.968;10.124;2024-02-21T11:11:38;6.72;;;1.40;;
71639;SDS011;60912;48.968;10.124;2024-02-21T11:14:09;6.03;;;1.50;;
71639;SDS011;60912;48.968;10.124;2024-02-21T11:16:37;7.97;;;1.48;;
71639;SDS011;60912;48.968;10.124;2024-02-21T11:21:35;4.50;;;1.42;;
71639;SDS011;60912;48.968;10.124;2024-02-21T11:24:02;6.78;;;1.67;;
71639;SDS011;60912;48.968;10.124;2024-02-21T11:26:29;7.57;;;2.00;;
71639;SDS011;60912;48.968;10.124;2024-02-21T11:28:56;3.63;;;1.10;;
71639;SDS011;60912;48.968;10.124;2024-02-21T11:31:25;4.60;;;1.30;;
71639;SDS011;60912;48.968;10.124;2024-02-21T11:33:52;6.82;;;1.45;;
71639;SDS011;60912;48.968;10.124;2024-02-21T11:36:24;5.82;;;1.40;;
71639;SDS011;60912;48.968;10.124;2024-02-21T11:38:51;4.63;;;1.23;;
71639;SDS011;60912;48.968;10.124;2024-02-21T11:41:18;7.57;;;1.47;;
71639;SDS011;60912;48.968;10.124;2024-02-21T11:43:43;4.03;;;1.40;;
71639;SDS011;60912;48.968;10.124;2024-02-21T11:46:09;4.43;;;1.00;;
71639;SDS011;60912;48.968;10.124;2024-02-21T11:48:34;3.93;;;1.10;;
71639;SDS011;60912;48.968;10.124;2024-02-21T11:50:59;5.07;;;1.10;;
71639;SDS011;60912;48.968;10.124;2024-02-21T11:53:25;8.85;;;1.20;;
71639;SDS011;60912;48.968;10.124;2024-02-21T11:55:55;5.03;;;1.40;;
71639;SDS011;60912;48.968;10.124;2024-02-21T11:58:21;4.55;;;1.50;;
71639;SDS011;60912;48.968;10.124;2024-02-21T12:00:47;4.00;;;1.10;;
71639;SDS011;60912;48.968;10.124;2024-02-21T12:03:13;5.40;;;1.27;;
71639;SDS011;60912;48.968;10.124;2024-02-21T12:05:38;3.00;;;0.93;;
71639;SDS011;60912;48.968;10.124;2024-02-21T12:08:04;3.63;;;1.20;;
71639;SDS011;60912;48.968;10.124;2024-02-21T12:10:30;5.50;;;1.35;;
71639;SDS011;60912;48.968;10.124;2024-02-21T12:13:05;4.23;;;1.30;;
71639;SDS011;60912;48.968;10.124;2024-02-21T12:15:32;5.65;;;1.40;;
71639;SDS011;60912;48.968;10.124;2024-02-21T12:17:57;5.27;;;1.50;;
71639;SDS011;60912;48.968;10.124;2024-02-21T12:20:25;4.93;;;1.20;;
71639;SDS011;60912;48.968;10.124;2024-02-21T12:22:50;4.82;;;1.25;;
71639;SDS011;60912;48.968;10.124;2024-02-21T12:25:17;5.55;;;1.25;;
71639;SDS011;60912;48.968;10.124;2024-02-21T12:27:44;4.55;;;1.02;;
71639;SDS011;60912;48.968;10.124;2024-02-21T12:30:09;4.67;;;1.00;;
71639;SDS011;60912;48.968;10.124;2024-02-21T12:32:35;3.95;;;1.10;;
71639;SDS011;60912;48.968;10.124;2024-02-21T12:35:01;4.47;;;1.20;;
71639;SDS011;60912;48.968;10.124;2024-02-21T12:37:27;5.00;;;1.23;;
71639;SDS011;60912;48.968;10.124;2024-02-21T12:39:53;4.70;;;1.15;;
71639;SDS011;60912;48.968;10.124;2024-02-21T12:42:18;4.80;;;1.20;;
71639;SDS011;60912;48.968;10.124;2024-02-21T12:44:44;2.87;;;1.00;;
71639;SDS011;60912;48.968;10.124;2024-02-21T12:47:09;6.20;;;1.20;;
71639;SDS011;60912;48.968;10.124;2024-02-21T12:49:34;6.30;;;1.27;;
71639;SDS011;60912;48.968;10.124;2024-02-21T12:52:00;4.63;;;1.10;;
71639;SDS011;60912;48.968;10.124;2024-02-21T12:54:25;5.43;;;1.07;;
71639;SDS011;60912;48.968;10.124;2024-02-21T12:56:51;5.53;;;1.17;;
71639;SDS011;60912;48.968;10.124;2024-02-21T12:59:16;4.13;;;1.00;;
71639;SDS011;60912;48.968;10.124;2024-02-21T13:01:42;5.13;;;1.10;;
71639;SDS011;60912;48.968;10.124;2024-02-21T13:04:07;4.80;;;1.10;;
71639;SDS011;60912;48.968;10.124;2024-02-21T13:06:32;4.37;;;0.97;;
71639;SDS011;60912;48.968;10.124;2024-02-21T13:08:58;3.60;;;1.03;;
71639;SDS011;60912;48.968;10.124;2024-02-21T13:11:24;4.03;;;0.90;;
71639;SDS011;60912;48.968;10.124;2024-02-21T13:13:52;4.30;;;1.17;;
71639;SDS011;60912;48.968;10.124;2024-02-21T13:16:17;6.17;;;1.23;;
71639;SDS011;60912;48.968;10.124;2024-02-21T13:18:43;6.07;;;0.90;;
71639;SDS011;60912;48.968;10.124;2024-02-21T13:21:08;4.33;;;1.20;;
71639;SDS011;60912;48.968;10.124;2024-02-21T13:23:34;4.40;;;1.10;;
71639;SDS011;60912;48.968;10.124;2024-02-21T13:25:59;3.47;;;1.07;;
71639;SDS011;60912;48.968;10.124;2024-02-21T13:28:24;5.53;;;0.93;;
71639;SDS011;60912;48.968;10.124;2024-02-21T13:30:50;2.67;;;0.87;;
71639;SDS011;60912;48.968;10.124;2024-02-21T13:33:15;3.10;;;0.80;;
71639;SDS011;60912;48.968;10.124;2024-02-21T13:35:41;3.10;;;0.90;;
71639;SDS011;60912;48.968;10.124;2024-02-21T13:38:06;3.17;;;0.90;;
71639;SDS011;60912;48.968;10.124;2024-02-21T13:40:32;3.50;;;0.87;;
71639;SDS011;60912;48.968;10.124;2024-02-21T13:42:57;3.23;;;0.90;;
71639;SDS011;60912;48.968;10.124;2024-02-21T13:45:23;3.55;;;0.93;;
71639;SDS011;60912;48.968;10.124;2024-02-21T13:47:48;3.47;;;1.00;;
71639;SDS011;60912;48.968;10.124;2024-02-21T13:50:14;4.37;;;1.10;;
71639;SDS011;60912;48.968;10.124;2024-02-21T13:52:40;4.30;;;1.00;;
71639;SDS011;60912;48.968;10.124;2024-02-21T13:55:06;3.85;;;0.90;;
71639;SDS011;60912;48.968;10.124;2024-02-21T13:57:37;4.15;;;1.10;;
71639;SDS011;60912;48.968;10.124;2024-02-21T14:00:03;5.13;;;1.33;;
71639;SDS011;60912;48.968;10.124;2024-02-21T14:02:29;3.47;;;1.10;;
71639;SDS011;60912;48.968;10.124;2024-02-21T14:04:55;3.58;;;1.00;;
71639;SDS011;60912;48.968;10.124;2024-02-21T14:07:21;2.80;;;0.90;;
71639;SDS011;60912;48.968;10.124;2024-02-21T14:09:46;4.32;;;0.90;;
71639;SDS011;60912;48.968;10.124;2024-02-21T14:12:12;4.17;;;0.93;;
71639;SDS011;60912;48.968;10.124;2024-02-21T14:14:37;4.00;;;1.00;;
71639;SDS011;60912;48.968;10.124;2024-02-21T14:17:03;4.63;;;0.93;;
71639;SDS011;60912;48.968;10.124;2024-02-21T14:19:29;2.80;;;0.90;;
71639;SDS011;60912;48.968;10.124;2024-02-21T14:21:54;2.45;;;0.75;;
71639;SDS011;60912;48.968;10.124;2024-02-21T14:24:21;2.43;;;0.77;;
71639;SDS011;60912;48.968;10.124;2024-02-21T14:26:47;1.90;;;0.80;;
71639;SDS011;60912;48.968;10.124;2024-02-21T14:29:15;3.20;;;0.70;;
71639;SDS011;60912;48.968;10.124;2024-02-21T14:31:40;3.47;;;0.90;;
71639;SDS011;60912;48.968;10.124;2024-02-21T14:34:05;3.03;;;0.90;;
71639;SDS011;60912;48.968;10.124;2024-02-21T14:36:32;3.33;;;0.80;;
71639;SDS011;60912;48.968;10.124;2024-02-21T14:38:58;2.20;;;0.80;;